Terminal Aerodrome Forecast
Issued by NWS

Home | Current Version | Previous Version | Text Only | Print | Product List | Glossary On
Versions: 1 2 3 4 5 6 7 8 9 10 11 12 13 14 15 16 17 18 19 20 21 22
000
FTUS44 KLIX 222324
TAFMSY
TAF
KMSY 222324Z 2300/2324 11008KT P6SM FEW035 BKN110 OVC200
      TEMPO 2300/2303 5SM -SHRA BR BKN030
     FM230300 14008KT P6SM SHRA VCTS BKN020CB OVC070
     FM230700 18010G18KT P6SM SHRA VCTS BKN015CB OVC040
     FM231200 24008KT P6SM SHRA VCTS BKN025CB OVC040=

USA.gov is the U.S. government's official web portal to all federal, state and local government web resources and services.